sensor_id;sensor_type;location;lat;lon;timestamp;pressure;altitude;pressure_sealevel;temperature;humidity
78685;BME280;68002;52.310;6.990;2023-03-13T00:00:15;99929.84;;;9.89;74.70
78685;BME280;68002;52.310;6.990;2023-03-13T00:02:40;99933.00;;;9.84;74.53
78685;BME280;68002;52.310;6.990;2023-03-13T00:05:05;99919.31;;;9.79;75.46
78685;BME280;68002;52.310;6.990;2023-03-13T00:07:31;99923.31;;;9.83;74.99
78685;BME280;68002;52.310;6.990;2023-03-13T00:09:56;99909.13;;;9.83;75.88
78685;BME280;68002;52.310;6.990;2023-03-13T00:12:21;99900.63;;;9.87;76.34
78685;BME280;68002;52.310;6.990;2023-03-13T00:14:46;99897.59;;;9.82;76.00
78685;BME280;68002;52.310;6.990;2023-03-13T00:17:11;99896.56;;;9.75;77.34
78685;BME280;68002;52.310;6.990;2023-03-13T00:19:37;99891.38;;;9.74;77.40
78685;BME280;68002;52.310;6.990;2023-03-13T00:22:02;99885.13;;;9.65;78.81
78685;BME280;68002;52.310;6.990;2023-03-13T00:24:27;99884.41;;;9.55;79.70
78685;BME280;68002;52.310;6.990;2023-03-13T00:26:54;99876.34;;;9.47;80.11
78685;BME280;68002;52.310;6.990;2023-03-13T00:29:19;99880.00;;;9.46;80.43
78685;BME280;68002;52.310;6.990;2023-03-13T00:31:44;99857.59;;;9.39;80.77
78685;BME280;68002;52.310;6.990;2023-03-13T00:34:09;99867.75;;;9.36;81.41
78685;BME280;68002;52.310;6.990;2023-03-13T00:36:35;99853.50;;;9.27;82.50
78685;BME280;68002;52.310;6.990;2023-03-13T00:39:01;99841.59;;;9.22;82.49
78685;BME280;68002;52.310;6.990;2023-03-13T00:41:29;99845.56;;;9.18;83.51
78685;BME280;68002;52.310;6.990;2023-03-13T00:43:55;99839.03;;;9.12;83.51
78685;BME280;68002;52.310;6.990;2023-03-13T00:46:23;99837.69;;;9.08;83.81
78685;BME280;68002;52.310;6.990;2023-03-13T00:48:49;99838.22;;;9.11;84.25
78685;BME280;68002;52.310;6.990;2023-03-13T00:51:17;99827.63;;;9.02;84.73
78685;BME280;68002;52.310;6.990;2023-03-13T00:53:44;99815.41;;;8.99;85.23
78685;BME280;68002;52.310;6.990;2023-03-13T00:56:14;99813.59;;;9.00;85.23
78685;BME280;68002;52.310;6.990;2023-03-13T00:58:41;99813.44;;;9.01;84.65
78685;BME280;68002;52.310;6.990;2023-03-13T01:01:16;99796.53;;;8.93;84.39
78685;BME280;68002;52.310;6.990;2023-03-13T01:03:44;99788.06;;;8.97;85.67
78685;BME280;68002;52.310;6.990;2023-03-13T01:06:12;99786.72;;;8.93;85.96
78685;BME280;68002;52.310;6.990;2023-03-13T01:08:38;99779.69;;;8.92;86.07
78685;BME280;68002;52.310;6.990;2023-03-13T01:11:08;99773.66;;;8.90;86.69
78685;BME280;68002;52.310;6.990;2023-03-13T01:13:34;99771.16;;;8.89;85.92
78685;BME280;68002;52.310;6.990;2023-03-13T01:16:05;99761.50;;;8.88;86.24
78685;BME280;68002;52.310;6.990;2023-03-13T01:18:32;99761.50;;;8.88;86.11
78685;BME280;68002;52.310;6.990;2023-03-13T01:20:57;99751.81;;;8.87;86.23
78685;BME280;68002;52.310;6.990;2023-03-13T01:23:22;99746.47;;;8.87;86.70
78685;BME280;68002;52.310;6.990;2023-03-13T01:25:48;99737.09;;;8.83;86.51
78685;BME280;68002;52.310;6.990;2023-03-13T01:28:13;99724.78;;;8.82;87.16
78685;BME280;68002;52.310;6.990;2023-03-13T01:30:38;99714.44;;;8.79;87.23
78685;BME280;68002;52.310;6.990;2023-03-13T01:33:04;99719.75;;;8.79;86.96
78685;BME280;68002;52.310;6.990;2023-03-13T01:35:29;99712.75;;;8.78;88.21
78685;BME280;68002;52.310;6.990;2023-03-13T01:37:54;99703.91;;;8.77;87.66
78685;BME280;68002;52.310;6.990;2023-03-13T01:40:19;99701.72;;;8.73;87.96
78685;BME280;68002;52.310;6.990;2023-03-13T01:42:56;99685.34;;;8.68;88.13
78685;BME280;68002;52.310;6.990;2023-03-13T01:48:19;99677.34;;;8.68;88.81
78685;BME280;68002;52.310;6.990;2023-03-13T01:50:44;99672.38;;;8.73;89.00
78685;BME280;68002;52.310;6.990;2023-03-13T01:53:10;99654.34;;;8.67;89.30
78685;BME280;68002;52.310;6.990;2023-03-13T01:55:35;99645.81;;;8.63;89.14
78685;BME280;68002;52.310;6.990;2023-03-13T01:58:01;99641.50;;;8.62;90.06
78685;BME280;68002;52.310;6.990;2023-03-13T02:00:29;99619.78;;;8.57;89.96
78685;BME280;68002;52.310;6.990;2023-03-13T02:02:59;99614.16;;;8.60;89.76
78685;BME280;68002;52.310;6.990;2023-03-13T02:05:27;99610.81;;;8.58;90.68
78685;BME280;68002;52.310;6.990;2023-03-13T02:07:57;99595.50;;;8.60;90.12
78685;BME280;68002;52.310;6.990;2023-03-13T02:10:25;99597.16;;;8.61;90.72
78685;BME280;68002;52.310;6.990;2023-03-13T02:12:52;99587.03;;;8.65;90.75
78685;BME280;68002;52.310;6.990;2023-03-13T02:15:20;99593.53;;;8.62;90.59
78685;BME280;68002;52.310;6.990;2023-03-13T02:17:47;99586.03;;;8.66;91.03
78685;BME280;68002;52.310;6.990;2023-03-13T02:20:16;99574.22;;;8.68;90.75
78685;BME280;68002;52.310;6.990;2023-03-13T02:23:26;99575.06;;;8.69;90.94
78685;BME280;68002;52.310;6.990;2023-03-13T02:25:45;99557.59;;;8.74;90.67
78685;BME280;68002;52.310;6.990;2023-03-13T02:28:21;99561.78;;;8.77;91.12
78685;BME280;68002;52.310;6.990;2023-03-13T02:30:49;99558.28;;;8.76;91.13
78685;BME280;68002;52.310;6.990;2023-03-13T02:33:15;99549.59;;;8.74;91.57
78685;BME280;68002;52.310;6.990;2023-03-13T02:35:43;99525.75;;;8.73;91.97
78685;BME280;68002;52.310;6.990;2023-03-13T02:38:12;99518.97;;;8.78;92.01
78685;BME280;68002;52.310;6.990;2023-03-13T02:40:41;99524.19;;;8.88;91.73
78685;BME280;68002;52.310;6.990;2023-03-13T02:43:12;99511.81;;;8.87;91.83
78685;BME280;68002;52.310;6.990;2023-03-13T02:45:38;99507.34;;;8.87;91.73
78685;BME280;68002;52.310;6.990;2023-03-13T02:48:04;99505.63;;;8.86;92.20
78685;BME280;68002;52.310;6.990;2023-03-13T02:50:29;99489.53;;;8.96;91.83
78685;BME280;68002;52.310;6.990;2023-03-13T02:53:00;99493.69;;;8.98;92.40
78685;BME280;68002;52.310;6.990;2023-03-13T02:55:39;99479.88;;;9.03;91.50
78685;BME280;68002;52.310;6.990;2023-03-13T02:58:04;99473.56;;;9.04;91.95
78685;BME280;68002;52.310;6.990;2023-03-13T03:00:30;99448.88;;;9.02;92.50
78685;BME280;68002;52.310;6.990;2023-03-13T03:02:55;99458.22;;;9.14;91.52
78685;BME280;68002;52.310;6.990;2023-03-13T03:05:21;99459.06;;;9.14;91.85
78685;BME280;68002;52.310;6.990;2023-03-13T03:07:47;99437.88;;;9.21;92.47
78685;BME280;68002;52.310;6.990;2023-03-13T03:10:12;99427.88;;;9.23;91.55
78685;BME280;68002;52.310;6.990;2023-03-13T03:12:38;99429.56;;;9.24;92.52
78685;BME280;68002;52.310;6.990;2023-03-13T03:15:03;99432.22;;;9.32;92.45
78685;BME280;68002;52.310;6.990;2023-03-13T03:17:29;99402.25;;;9.30;91.98
78685;BME280;68002;52.310;6.990;2023-03-13T03:19:54;99397.72;;;9.31;92.03
78685;BME280;68002;52.310;6.990;2023-03-13T03:22:19;99400.06;;;9.34;91.87
78685;BME280;68002;52.310;6.990;2023-03-13T03:24:44;99396.22;;;9.44;91.80
78685;BME280;68002;52.310;6.990;2023-03-13T03:27:10;99390.22;;;9.42;92.54
78685;BME280;68002;52.310;6.990;2023-03-13T03:29:35;99388.56;;;9.41;92.85
78685;BME280;68002;52.310;6.990;2023-03-13T03:32:00;99396.22;;;9.44;92.20
78685;BME280;68002;52.310;6.990;2023-03-13T03:34:25;99390.88;;;9.52;92.86
78685;BME280;68002;52.310;6.990;2023-03-13T03:36:51;99378.72;;;9.50;92.57
78685;BME280;68002;52.310;6.990;2023-03-13T03:39:16;99392.03;;;9.66;92.02
78685;BME280;68002;52.310;6.990;2023-03-13T03:41:41;99397.22;;;9.67;91.83
78685;BME280;68002;52.310;6.990;2023-03-13T03:44:06;99390.72;;;9.70;91.96
78685;BME280;68002;52.310;6.990;2023-03-13T03:46:31;99376.16;;;9.80;91.46
78685;BME280;68002;52.310;6.990;2023-03-13T03:48:57;99381.69;;;9.87;91.67
78685;BME280;68002;52.310;6.990;2023-03-13T03:51:22;99387.50;;;9.90;92.29
78685;BME280;68002;52.310;6.990;2023-03-13T03:53:47;99385.81;;;9.89;92.04
78685;BME280;68002;52.310;6.990;2023-03-13T03:56:13;99383.09;;;10.05;91.88
78685;BME280;68002;52.310;6.990;2023-03-13T03:58:38;99362.63;;;9.98;92.77
78685;BME280;68002;52.310;6.990;2023-03-13T04:01:03;99370.63;;;9.98;91.77
78685;BME280;68002;52.310;6.990;2023-03-13T04:03:29;99354.59;;;9.98;92.77
78685;BME280;68002;52.310;6.990;2023-03-13T04:05:54;99363.44;;;9.98;92.27
78685;BME280;68002;52.310;6.990;2023-03-13T04:08:19;99369.97;;;9.96;93.23
78685;BME280;68002;52.310;6.990;2023-03-13T04:10:44;99352.56;;;10.08;92.17
78685;BME280;68002;52.310;6.990;2023-03-13T04:13:10;99371.41;;;10.14;92.12
78685;BME280;68002;52.310;6.990;2023-03-13T04:15:37;99339.53;;;10.13;92.74
78685;BME280;68002;52.310;6.990;2023-03-13T04:18:03;99340.38;;;10.13;92.26
78685;BME280;68002;52.310;6.990;2023-03-13T04:20:28;99332.53;;;10.12;92.06
78685;BME280;68002;52.310;6.990;2023-03-13T04:22:53;99347.06;;;10.18;92.69
78685;BME280;68002;52.310;6.990;2023-03-13T04:25:19;99341.66;;;10.26;93.01
78685;BME280;68002;52.310;6.990;2023-03-13T04:27:44;99339.34;;;10.23;92.89
78685;BME280;68002;52.310;6.990;2023-03-13T04:30:10;99354.03;;;10.27;92.77
78685;BME280;68002;52.310;6.990;2023-03-13T04:32:35;99357.00;;;10.32;92.54
78685;BME280;68002;52.310;6.990;2023-03-13T04:35:00;99329.09;;;10.34;92.70
78685;BME280;68002;52.310;6.990;2023-03-13T04:37:25;99324.72;;;10.41;92.16
78685;BME280;68002;52.310;6.990;2023-03-13T04:39:51;99331.56;;;10.44;92.64
78685;BME280;68002;52.310;6.990;2023-03-13T04:42:16;99321.22;;;10.41;92.62
78685;BME280;68002;52.310;6.990;2023-03-13T04:44:41;99311.38;;;10.41;92.53
78685;BME280;68002;52.310;6.990;2023-03-13T04:47:06;99313.69;;;10.44;92.30
78685;BME280;68002;52.310;6.990;2023-03-13T04:49:31;99304.97;;;10.50;92.36
78685;BME280;68002;52.310;6.990;2023-03-13T04:51:57;99294.09;;;10.52;92.52
78685;BME280;68002;52.310;6.990;2023-03-13T04:54:22;99298.44;;;10.53;93.04
78685;BME280;68002;52.310;6.990;2023-03-13T04:56:47;99287.16;;;10.65;92.92
78685;BME280;68002;52.310;6.990;2023-03-13T04:59:14;99291.38;;;10.60;92.58
78685;BME280;68002;52.310;6.990;2023-03-13T05:01:40;99284.66;;;10.64;92.80
78685;BME280;68002;52.310;6.990;2023-03-13T05:04:06;99283.94;;;10.70;94.98
78685;BME280;68002;52.310;6.990;2023-03-13T05:06:31;99271.94;;;10.66;95.44
78685;BME280;68002;52.310;6.990;2023-03-13T05:08:57;99288.28;;;10.71;94.92
78685;BME280;68002;52.310;6.990;2023-03-13T05:11:22;99300.47;;;10.73;92.94
78685;BME280;68002;52.310;6.990;2023-03-13T05:13:48;99283.22;;;10.76;93.14
78685;BME280;68002;52.310;6.990;2023-03-13T05:16:13;99295.91;;;10.82;92.94
78685;BME280;68002;52.310;6.990;2023-03-13T05:18:39;99293.34;;;10.88;92.29
78685;BME280;68002;52.310;6.990;2023-03-13T05:21:05;99284.66;;;10.86;92.60
78685;BME280;68002;52.310;6.990;2023-03-13T05:23:30;99278.22;;;10.95;91.97
78685;BME280;68002;52.310;6.990;2023-03-13T05:25:55;99281.75;;;10.96;91.89
78685;BME280;68002;52.310;6.990;2023-03-13T05:28:20;99271.75;;;10.90;92.48
78685;BME280;68002;52.310;6.990;2023-03-13T05:30:46;99254.34;;;10.94;92.32
78685;BME280;68002;52.310;6.990;2023-03-13T05:33:11;99274.91;;;10.93;92.31
78685;BME280;68002;52.310;6.990;2023-03-13T05:35:36;99277.41;;;10.95;92.43
78685;BME280;68002;52.310;6.990;2023-03-13T05:38:01;99261.84;;;10.98;92.28
78685;BME280;68002;52.310;6.990;2023-03-13T05:40:27;99269.69;;;11.00;92.52
78685;BME280;68002;52.310;6.990;2023-03-13T05:42:52;99275.97;;;11.07;92.10
78685;BME280;68002;52.310;6.990;2023-03-13T05:45:17;99245.03;;;11.04;92.72
78685;BME280;68002;52.310;6.990;2023-03-13T05:47:42;99222.91;;;11.10;92.21
78685;BME280;68002;52.310;6.990;2023-03-13T05:50:08;99239.81;;;11.11;92.39
78685;BME280;68002;52.310;6.990;2023-03-13T05:52:33;99231.22;;;11.15;92.17
78685;BME280;68002;52.310;6.990;2023-03-13T05:54:59;99233.63;;;11.10;91.81
78685;BME280;68002;52.310;6.990;2023-03-13T05:57:24;99232.53;;;11.20;91.69
78685;BME280;68002;52.310;6.990;2023-03-13T05:59:49;99248.88;;;11.25;91.67
78685;BME280;68002;52.310;6.990;2023-03-13T06:02:14;99234.66;;;11.24;91.65
78685;BME280;68002;52.310;6.990;2023-03-13T06:04:40;99247.59;;;11.21;91.94
78685;BME280;68002;52.310;6.990;2023-03-13T06:07:05;99250.81;;;11.31;91.76
78685;BME280;68002;52.310;6.990;2023-03-13T06:09:30;99240.94;;;11.31;91.38
78685;BME280;68002;52.310;6.990;2023-03-13T06:11:55;99253.06;;;11.42;90.79
78685;BME280;68002;52.310;6.990;2023-03-13T06:14:21;99238.38;;;11.38;91.08
78685;BME280;68002;52.310;6.990;2023-03-13T06:16:46;99251.28;;;11.34;91.54
78685;BME280;68002;52.310;6.990;2023-03-13T06:19:11;99246.59;;;11.51;90.07
78685;BME280;68002;52.310;6.990;2023-03-13T06:21:37;99242.09;;;11.51;90.18
78685;BME280;68002;52.310;6.990;2023-03-13T06:24:02;99274.59;;;11.63;89.59
78685;BME280;68002;52.310;6.990;2023-03-13T06:26:28;99265.72;;;11.62;89.37
78685;BME280;68002;52.310;6.990;2023-03-13T06:28:53;99261.97;;;11.71;88.96
78685;BME280;68002;52.310;6.990;2023-03-13T06:31:18;99242.13;;;11.66;89.19
78685;BME280;68002;52.310;6.990;2023-03-13T06:33:44;99248.94;;;11.68;89.51
78685;BME280;68002;52.310;6.990;2023-03-13T06:36:09;99237.59;;;11.66;89.98
78685;BME280;68002;52.310;6.990;2023-03-13T06:38:34;99235.72;;;11.67;90.20
78685;BME280;68002;52.310;6.990;2023-03-13T06:41:00;99242.75;;;11.68;90.10
78685;BME280;68002;52.310;6.990;2023-03-13T06:43:26;99243.41;;;11.70;89.68
78685;BME280;68002;52.310;6.990;2023-03-13T06:45:51;99254.47;;;11.67;89.66
78685;BME280;68002;52.310;6.990;2023-03-13T06:48:16;99238.06;;;11.70;89.65
78685;BME280;68002;52.310;6.990;2023-03-13T06:50:42;99232.84;;;11.68;89.43
78685;BME280;68002;52.310;6.990;2023-03-13T06:53:18;99242.19;;;11.72;89.20
78685;BME280;68002;52.310;6.990;2023-03-13T06:55:44;99228.81;;;11.72;89.24
78685;BME280;68002;52.310;6.990;2023-03-13T06:58:10;99239.69;;;11.85;88.71
78685;BME280;68002;52.310;6.990;2023-03-13T07:00:36;99231.91;;;11.90;88.35
78685;BME280;68002;52.310;6.990;2023-03-13T07:03:01;99234.59;;;11.90;88.10
78685;BME280;68002;52.310;6.990;2023-03-13T07:05:26;99227.56;;;12.04;87.68
78685;BME280;68002;52.310;6.990;2023-03-13T07:07:51;99219.47;;;11.97;87.79
78685;BME280;68002;52.310;6.990;2023-03-13T07:10:17;99217.41;;;11.99;88.06
78685;BME280;68002;52.310;6.990;2023-03-13T07:12:42;99214.72;;;11.99;87.65
78685;BME280;68002;52.310;6.990;2023-03-13T07:15:08;99205.03;;;11.98;87.98
78685;BME280;68002;52.310;6.990;2023-03-13T07:17:33;99209.66;;;12.04;87.13
78685;BME280;68002;52.310;6.990;2023-03-13T07:19:58;99203.25;;;12.05;87.00
78685;BME280;68002;52.310;6.990;2023-03-13T07:22:23;99204.75;;;12.08;87.09
78685;BME280;68002;52.310;6.990;2023-03-13T07:24:49;99206.13;;;12.04;86.90
78685;BME280;68002;52.310;6.990;2023-03-13T07:27:16;99216.00;;;12.03;86.53
78685;BME280;68002;52.310;6.990;2023-03-13T07:29:41;99215.72;;;12.13;86.54
78685;BME280;68002;52.310;6.990;2023-03-13T07:32:06;99223.22;;;12.18;85.72
78685;BME280;68002;52.310;6.990;2023-03-13T07:34:32;99213.50;;;12.17;85.97
78685;BME280;68002;52.310;6.990;2023-03-13T07:36:57;99212.84;;;12.14;85.93
78685;BME280;68002;52.310;6.990;2023-03-13T07:39:23;99181.97;;;12.19;85.39
78685;BME280;68002;52.310;6.990;2023-03-13T07:41:48;99209.41;;;12.21;85.09
78685;BME280;68002;52.310;6.990;2023-03-13T07:44:13;99208.38;;;12.22;85.68
78685;BME280;68002;52.310;6.990;2023-03-13T07:46:39;99209.41;;;12.21;85.05
78685;BME280;68002;52.310;6.990;2023-03-13T07:49:04;99204.25;;;12.19;85.54
78685;BME280;68002;52.310;6.990;2023-03-13T07:51:29;99202.53;;;12.33;84.63
78685;BME280;68002;52.310;6.990;2023-03-13T07:53:54;99196.81;;;12.36;84.03
78685;BME280;68002;52.310;6.990;2023-03-13T07:56:21;99199.09;;;12.39;83.86
78685;BME280;68002;52.310;6.990;2023-03-13T07:58:47;99212.06;;;12.35;84.33
78685;BME280;68002;52.310;6.990;2023-03-13T08:01:30;99189.13;;;12.33;84.10
78685;BME280;68002;52.310;6.990;2023-03-13T08:03:55;99193.34;;;12.42;83.83
78685;BME280;68002;52.310;6.990;2023-03-13T08:06:22;99169.84;;;12.44;83.85
78685;BME280;68002;52.310;6.990;2023-03-13T08:08:48;99186.03;;;12.50;83.42
78685;BME280;68002;52.310;6.990;2023-03-13T08:11:16;99192.06;;;12.59;82.95
78685;BME280;68002;52.310;6.990;2023-03-13T08:13:42;99188.69;;;12.50;83.19
78685;BME280;68002;52.310;6.990;2023-03-13T08:16:10;99178.22;;;12.55;83.26
78685;BME280;68002;52.310;6.990;2023-03-13T08:18:38;99190.22;;;12.59;82.18
78685;BME280;68002;52.310;6.990;2023-03-13T08:21:06;99182.22;;;12.66;82.14
78685;BME280;68002;52.310;6.990;2023-03-13T08:23:31;99170.53;;;12.73;81.68
78685;BME280;68002;52.310;6.990;2023-03-13T08:26:11;99172.38;;;12.73;82.04
78685;BME280;68002;52.310;6.990;2023-03-13T08:28:37;99177.00;;;12.79;81.92
78685;BME280;68002;52.310;6.990;2023-03-13T08:33:38;99169.56;;;12.81;80.48
78685;BME280;68002;52.310;6.990;2023-03-13T08:36:10;99190.06;;;12.88;80.32
78685;BME280;68002;52.310;6.990;2023-03-13T08:38:35;99202.28;;;12.91;81.32
78685;BME280;68002;52.310;6.990;2023-03-13T08:41:01;99204.34;;;12.89;80.33
78685;BME280;68002;52.310;6.990;2023-03-13T08:43:26;99199.28;;;12.79;81.38
78685;BME280;68002;52.310;6.990;2023-03-13T08:45:54;99203.75;;;12.93;81.14
78685;BME280;68002;52.310;6.990;2023-03-13T08:48:20;99182.22;;;12.87;81.10
78685;BME280;68002;52.310;6.990;2023-03-13T08:50:45;99222.09;;;12.90;80.91
78685;BME280;68002;52.310;6.990;2023-03-13T08:53:10;99226.25;;;12.92;80.72
78685;BME280;68002;52.310;6.990;2023-03-13T08:55:35;99211.41;;;12.96;80.53
78685;BME280;68002;52.310;6.990;2023-03-13T08:58:00;99216.78;;;12.96;81.74
78685;BME280;68002;52.310;6.990;2023-03-13T09:00:25;99207.81;;;12.89;82.43
78685;BME280;68002;52.310;6.990;2023-03-13T09:02:51;99216.78;;;12.96;80.84
78685;BME280;68002;52.310;6.990;2023-03-13T09:05:16;99207.47;;;12.92;81.26
78685;BME280;68002;52.310;6.990;2023-03-13T09:07:41;99215.31;;;12.94;81.64
78685;BME280;68002;52.310;6.990;2023-03-13T09:10:07;99198.56;;;12.92;81.42
78685;BME280;68002;52.310;6.990;2023-03-13T09:12:32;99198.81;;;12.97;81.43
78685;BME280;68002;52.310;6.990;2023-03-13T09:14:57;99202.53;;;12.96;82.15
78685;BME280;68002;52.310;6.990;2023-03-13T09:17:22;99179.09;;;13.04;81.58
78685;BME280;68002;52.310;6.990;2023-03-13T09:19:47;99191.00;;;13.23;80.84
78685;BME280;68002;52.310;6.990;2023-03-13T09:22:13;99199.91;;;13.30;80.15
78685;BME280;68002;52.310;6.990;2023-03-13T09:24:38;99185.53;;;13.44;78.70
78685;BME280;68002;52.310;6.990;2023-03-13T09:27:03;99161.47;;;13.30;80.10
78685;BME280;68002;52.310;6.990;2023-03-13T09:29:29;99183.50;;;13.46;77.89
78685;BME280;68002;52.310;6.990;2023-03-13T09:31:54;99174.78;;;13.44;78.57
78685;BME280;68002;52.310;6.990;2023-03-13T09:34:19;99179.00;;;13.53;78.18
78685;BME280;68002;52.310;6.990;2023-03-13T09:36:44;99177.75;;;13.56;77.93
78685;BME280;68002;52.310;6.990;2023-03-13T09:39:09;99196.63;;;13.62;77.20
78685;BME280;68002;52.310;6.990;2023-03-13T09:41:39;99204.59;;;13.49;77.42
78685;BME280;68002;52.310;6.990;2023-03-13T09:44:19;99206.31;;;13.57;76.97
78685;BME280;68002;52.310;6.990;2023-03-13T09:49:40;99176.66;;;13.84;75.20
78685;BME280;68002;52.310;6.990;2023-03-13T09:52:30;99169.28;;;13.99;74.46
78685;BME280;68002;52.310;6.990;2023-03-13T09:55:12;99150.50;;;14.06;73.29
78685;BME280;68002;52.310;6.990;2023-03-13T09:57:54;99170.16;;;14.13;73.20
78685;BME280;68002;52.310;6.990;2023-03-13T10:00:33;99196.44;;;14.18;71.37
78685;BME280;68002;52.310;6.990;2023-03-13T10:03:34;99170.38;;;14.11;72.31
78685;BME280;68002;52.310;6.990;2023-03-13T10:06:14;99171.00;;;14.13;71.84
78685;BME280;68002;52.310;6.990;2023-03-13T10:08:42;99153.59;;;14.09;72.57
78685;BME280;68002;52.310;6.990;2023-03-13T10:16:19;99152.19;;;14.13;73.89
78685;BME280;68002;52.310;6.990;2023-03-13T10:18:50;99150.31;;;14.21;71.50
78685;BME280;68002;52.310;6.990;2023-03-13T10:21:20;99146.66;;;14.35;71.23
78685;BME280;68002;52.310;6.990;2023-03-13T10:26:29;99109.22;;;14.66;67.79
78685;BME280;68002;52.310;6.990;2023-03-13T10:29:01;99119.78;;;14.74;65.82
78685;BME280;68002;52.310;6.990;2023-03-13T10:31:31;99123.31;;;14.81;64.96
78685;BME280;68002;52.310;6.990;2023-03-13T10:34:11;99121.22;;;14.76;64.68
78685;BME280;68002;52.310;6.990;2023-03-13T10:36:46;99112.34;;;14.76;64.13
78685;BME280;68002;52.310;6.990;2023-03-13T10:39:17;99123.31;;;14.81;65.52
78685;BME280;68002;52.310;6.990;2023-03-13T10:41:43;99099.91;;;14.81;64.74
78685;BME280;68002;52.310;6.990;2023-03-13T10:44:20;99123.06;;;14.89;64.93
78685;BME280;68002;52.310;6.990;2023-03-13T10:46:48;99111.88;;;14.98;65.17
78685;BME280;68002;52.310;6.990;2023-03-13T10:49:20;99097.38;;;15.06;64.72
78685;BME280;68002;52.310;6.990;2023-03-13T10:51:54;99097.59;;;14.98;65.79
78685;BME280;68002;52.310;6.990;2023-03-13T10:54:34;99099.88;;;15.01;66.82
78685;BME280;68002;52.310;6.990;2023-03-13T10:57:36;99105.66;;;15.04;66.42
78685;BME280;68002;52.310;6.990;2023-03-13T11:00:32;99097.13;;;15.27;66.63
78685;BME280;68002;52.310;6.990;2023-03-13T11:02:58;99083.19;;;15.50;64.00
78685;BME280;68002;52.310;6.990;2023-03-13T11:07:49;99085.47;;;15.46;64.20
78685;BME280;68002;52.310;6.990;2023-03-13T11:10:27;99102.00;;;15.63;64.14
78685;BME280;68002;52.310;6.990;2023-03-13T11:12:55;99071.38;;;15.95;62.36
78685;BME280;68002;52.310;6.990;2023-03-13T11:18:11;99058.06;;;16.00;61.66
78685;BME280;68002;52.310;6.990;2023-03-13T11:20:40;99056.50;;;16.42;59.92
78685;BME280;68002;52.310;6.990;2023-03-13T11:23:17;99047.88;;;16.33;59.05
78685;BME280;68002;52.310;6.990;2023-03-13T11:31:27;99060.00;;;16.18;60.14
78685;BME280;68002;52.310;6.990;2023-03-13T11:39:45;99088.03;;;16.17;59.25
78685;BME280;68002;52.310;6.990;2023-03-13T11:53:43;99040.47;;;16.53;57.48
78685;BME280;68002;52.310;6.990;2023-03-13T11:56:20;99027.63;;;16.49;57.36
78685;BME280;68002;52.310;6.990;2023-03-13T12:01:38;99034.16;;;16.35;57.37
78685;BME280;68002;52.310;6.990;2023-03-13T12:07:33;98996.09;;;17.03;55.34
78685;BME280;68002;52.310;6.990;2023-03-13T12:09:46;98998.75;;;17.10;55.57
78685;BME280;68002;52.310;6.990;2023-03-13T12:12:34;98990.19;;;17.13;55.67
78685;BME280;68002;52.310;6.990;2023-03-13T12:15:05;98991.41;;;16.99;55.32
78685;BME280;68002;52.310;6.990;2023-03-13T12:17:39;98983.16;;;17.12;56.56
78685;BME280;68002;52.310;6.990;2023-03-13T12:20:24;98994.47;;;17.21;56.30
78685;BME280;68002;52.310;6.990;2023-03-13T12:26:16;98993.94;;;17.12;55.42
78685;BME280;68002;52.310;6.990;2023-03-13T12:28:47;98972.16;;;17.07;55.14
78685;BME280;68002;52.310;6.990;2023-03-13T12:31:32;98972.50;;;16.99;55.95
78685;BME280;68002;52.310;6.990;2023-03-13T12:34:19;98975.56;;;17.02;56.00
78685;BME280;68002;52.310;6.990;2023-03-13T12:37:03;98952.84;;;16.92;56.15
78685;BME280;68002;52.310;6.990;2023-03-13T12:39:47;98947.75;;;17.32;55.56
78685;BME280;68002;52.310;6.990;2023-03-13T12:44:58;98942.88;;;17.22;54.23
78685;BME280;68002;52.310;6.990;2023-03-13T12:58:28;98927.56;;;18.40;50.00
78685;BME280;68002;52.310;6.990;2023-03-13T13:00:55;98888.97;;;18.21;49.69
78685;BME280;68002;52.310;6.990;2023-03-13T13:03:29;98912.53;;;18.44;49.10
78685;BME280;68002;52.310;6.990;2023-03-13T13:06:10;98959.28;;;18.62;48.65
78685;BME280;68002;52.310;6.990;2023-03-13T13:08:37;98921.69;;;18.43;49.13
78685;BME280;68002;52.310;6.990;2023-03-13T13:11:37;98922.50;;;18.20;49.43
78685;BME280;68002;52.310;6.990;2023-03-13T13:16:40;98988.09;;;18.80;47.24
78685;BME280;68002;52.310;6.990;2023-03-13T13:25:45;98885.09;;;18.52;46.74
78685;BME280;68002;52.310;6.990;2023-03-13T13:27:47;98893.41;;;18.39;46.68
78685;BME280;68002;52.310;6.990;2023-03-13T13:35:29;98894.63;;;18.20;47.68
78685;BME280;68002;52.310;6.990;2023-03-13T13:43:22;98899.63;;;17.81;49.00
78685;BME280;68002;52.310;6.990;2023-03-13T13:46:04;98895.53;;;17.90;49.37
78685;BME280;68002;52.310;6.990;2023-03-13T13:53:42;98888.75;;;17.58;50.30
78685;BME280;68002;52.310;6.990;2023-03-13T13:56:35;98891.56;;;18.16;48.78
78685;BME280;68002;52.310;6.990;2023-03-13T14:01:26;98876.25;;;18.22;46.96
78685;BME280;68002;52.310;6.990;2023-03-13T14:03:53;98881.44;;;18.12;46.93
78685;BME280;68002;52.310;6.990;2023-03-13T14:06:27;98872.59;;;17.81;47.63
78685;BME280;68002;52.310;6.990;2023-03-13T14:08:56;98867.84;;;17.65;46.91
78685;BME280;68002;52.310;6.990;2023-03-13T14:14:29;98859.41;;;17.44;47.36
78685;BME280;68002;52.310;6.990;2023-03-13T14:16:55;98870.66;;;17.59;47.49
78685;BME280;68002;52.310;6.990;2023-03-13T14:19:27;98872.53;;;17.58;47.92
78685;BME280;68002;52.310;6.990;2023-03-13T14:22:00;98833.09;;;17.39;48.64
78685;BME280;68002;52.310;6.990;2023-03-13T14:24:26;98858.22;;;17.28;49.47
78685;BME280;68002;52.310;6.990;2023-03-13T14:26:51;98860.78;;;17.23;49.48
78685;BME280;68002;52.310;6.990;2023-03-13T14:29:18;98882.34;;;17.12;49.32
78685;BME280;68002;52.310;6.990;2023-03-13T14:31:50;98837.78;;;17.44;48.34
78685;BME280;68002;52.310;6.990;2023-03-13T14:34:16;98849.56;;;17.38;48.54
78685;BME280;68002;52.310;6.990;2023-03-13T14:37:00;98840.88;;;17.47;48.40
78685;BME280;68002;52.310;6.990;2023-03-13T14:42:16;98833.16;;;17.21;47.37
78685;BME280;68002;52.310;6.990;2023-03-13T14:44:43;98845.00;;;17.20;47.66
78685;BME280;68002;52.310;6.990;2023-03-13T14:47:21;98839.91;;;18.29;44.70